Time;durP1;ratioP1;P1;durP2;ratioP2;P2;SDS_P1;SDS_P2;PMS_P1;PMS_P2;Temp;Humidity;BMP_temperature;BMP_pressure;BME280_temperature;BME280_humidity;BME280_pressure;Samples;Min_cycle;Max_cycle;Signal;HPM_P1;HPM_P2
2021/04/21 00:02:19;;;;;;;27.63;13.00;;;8.00;87.70;;;;;;5113234;28;20470;-68
2021/04/21 00:04:46;;;;;;;20.80;11.67;;;8.00;87.80;;;;;;5112721;28;20427;-71
2021/04/21 00:07:18;;;;;;;23.50;12.03;;;8.00;87.80;;;;;;5111763;28;20451;-70
2021/04/21 00:09:45;;;;;;;23.87;12.67;;;8.00;87.70;;;;;;5111742;28;20443;-70
2021/04/21 00:12:12;;;;;;;23.47;13.10;;;8.00;87.70;;;;;;5112843;28;20436;-71
2021/04/21 00:14:37;;;;;;;23.97;12.03;;;8.10;87.60;;;;;;5112478;28;20428;-70
2021/04/21 00:17:06;;;;;;;22.23;12.37;;;8.00;87.00;;;;;;5113105;28;20435;-70
2021/04/21 00:19:36;;;;;;;20.50;10.80;;;7.80;87.40;;;;;;5099155;28;20674;-70
2021/04/21 00:22:04;;;;;;;24.20;12.40;;;7.70;88.10;;;;;;5115090;28;20460;-70
2021/04/21 00:24:31;;;;;;;24.00;12.33;;;7.70;88.70;;;;;;5114282;28;20420;-71
2021/04/21 00:26:58;;;;;;;22.83;12.23;;;7.70;89.00;;;;;;5116874;28;20444;-72
2021/04/21 00:29:27;;;;;;;20.07;11.73;;;7.60;89.30;;;;;;5117205;28;20470;-69
2021/04/21 00:31:55;;;;;;;28.67;13.50;;;7.60;89.60;;;;;;5116580;28;20425;-70
2021/04/21 00:34:22;;;;;;;23.70;12.57;;;7.60;89.60;;;;;;5099590;28;20501;-71
2021/04/21 00:36:51;;;;;;;23.57;14.10;;;7.60;89.60;;;;;;5098631;28;20485;-71
2021/04/21 00:39:19;;;;;;;24.43;13.63;;;7.60;89.60;;;;;;5098214;28;20471;-70
2021/04/21 00:42:02;;;;;;;26.23;12.93;;;7.60;89.30;;;;;;5095815;28;20465;-69
2021/04/21 00:44:50;;;;;;;19.40;11.60;;;7.70;89.30;;;;;;5096635;28;20413;-69
2021/04/21 00:47:21;;;;;;;24.23;13.40;;;7.70;89.30;;;;;;5109111;28;20451;-69
2021/04/21 00:50:04;;;;;;;26.57;13.57;;;7.70;89.20;;;;;;5112026;28;20440;-72
2021/04/21 00:53:07;;;;;;;23.80;14.13;;;7.60;89.20;;;;;;5112169;28;20533;-72
2021/04/21 00:56:05;;;;;;;24.90;13.27;;;7.60;89.30;;;;;;5110403;28;20991;-72
2021/04/21 00:58:59;;;;;;;26.10;12.30;;;7.60;89.50;;;;;;5111850;28;20511;-72
2021/04/21 01:01:29;;;;;;;25.93;13.70;;;7.70;89.20;;;;;;5111559;28;20444;-71
2021/04/21 01:03:55;;;;;;;20.83;12.17;;;7.60;89.00;;;;;;5111749;28;20431;-70
2021/04/21 01:06:37;;;;;;;22.10;12.90;;;7.60;89.20;;;;;;5113814;28;20452;-69
2021/04/21 01:09:06;;;;;;;23.63;13.67;;;7.60;89.00;;;;;;5120406;28;20425;-70
2021/04/21 01:11:38;;;;;;;23.10;13.03;;;7.60;89.00;;;;;;5119327;28;20500;-70
2021/04/21 01:14:18;;;;;;;30.30;14.27;;;7.60;89.30;;;;;;5113734;28;20420;-71
2021/04/21 01:16:47;;;;;;;26.23;13.50;;;7.60;89.20;;;;;;5100911;28;20458;-71
2021/04/21 01:19:31;;;;;;;27.13;13.97;;;7.60;89.20;;;;;;5115968;28;20450;-71
2021/04/21 01:22:42;;;;;;;25.10;14.07;;;7.60;89.20;;;;;;5116463;28;20467;-71
2021/04/21 01:25:18;;;;;;;25.50;13.57;;;7.50;89.50;;;;;;5086785;28;20434;-70
2021/04/21 01:27:57;;;;;;;30.40;15.03;;;7.50;89.60;;;;;;5122256;28;20416;-71
2021/04/21 01:30:25;;;;;;;24.30;13.37;;;7.50;89.60;;;;;;5124807;28;20436;-69
2021/04/21 01:32:55;;;;;;;30.27;14.97;;;7.50;89.60;;;;;;5122355;28;21064;-68
2021/04/21 01:35:22;;;;;;;28.47;14.40;;;7.50;89.30;;;;;;5125262;28;20515;-71
2021/04/21 01:37:57;;;;;;;31.63;14.70;;;7.40;89.50;;;;;;5125912;28;20439;-71
2021/04/21 01:40:26;;;;;;;27.93;14.70;;;7.40;89.60;;;;;;5126527;28;20716;-72
2021/04/21 01:42:55;;;;;;;25.50;13.33;;;7.40;89.60;;;;;;5125686;28;20464;-70
2021/04/21 01:45:30;;;;;;;24.77;13.57;;;7.40;89.50;;;;;;5124065;28;20426;-71
2021/04/21 01:48:00;;;;;;;22.20;11.97;;;7.40;89.20;;;;;;5123971;28;20416;-71
2021/04/21 01:50:26;;;;;;;26.17;13.40;;;7.30;88.70;;;;;;5109012;28;20432;-71
2021/04/21 01:52:55;;;;;;;29.47;13.70;;;7.20;89.00;;;;;;5113696;28;20465;-68
2021/04/21 01:55:20;;;;;;;27.20;14.43;;;7.10;89.70;;;;;;5120506;28;20420;-72
2021/04/21 01:57:49;;;;;;;33.27;14.40;;;7.10;90.20;;;;;;5124056;28;20432;-71
2021/04/21 02:00:35;;;;;;;28.70;14.13;;;7.10;90.50;;;;;;5109690;28;20602;-70
2021/04/21 02:03:13;;;;;;;29.63;14.83;;;7.00;90.50;;;;;;5121536;28;20479;-71
2021/04/21 02:06:05;;;;;;;25.80;14.07;;;7.00;90.80;;;;;;5118634;28;20885;-69
2021/04/21 02:08:56;;;;;;;31.07;15.23;;;7.00;91.10;;;;;;5116281;28;20658;-72
2021/04/21 02:11:28;;;;;;;31.70;15.87;;;7.00;91.20;;;;;;5116614;28;20443;-71
2021/04/21 02:14:15;;;;;;;30.47;15.40;;;7.00;91.40;;;;;;5120038;28;20420;-71
2021/04/21 02:17:18;;;;;;;27.43;15.33;;;7.00;91.40;;;;;;5115288;28;20431;-71
2021/04/21 02:20:13;;;;;;;28.20;14.97;;;7.00;91.50;;;;;;5114776;28;20447;-69
2021/04/21 02:22:53;;;;;;;33.07;16.40;;;7.00;91.40;;;;;;5103102;28;20469;-70
2021/04/21 02:25:41;;;;;;;33.43;15.67;;;7.00;91.40;;;;;;5114577;28;20427;-71
2021/04/21 02:28:42;;;;;;;26.70;13.87;;;7.10;91.30;;;;;;5100683;28;20432;-69
2021/04/21 02:31:26;;;;;;;28.20;15.00;;;7.10;90.80;;;;;;5107040;28;20534;-70
2021/04/21 02:34:04;;;;;;;31.83;15.10;;;7.00;90.40;;;;;;5112789;28;20966;-71
2021/04/21 02:36:43;;;;;;;29.67;16.53;;;7.00;90.60;;;;;;5116633;28;20507;-71
2021/04/21 02:39:17;;;;;;;33.27;16.83;;;6.90;90.90;;;;;;5120152;28;20408;-69
2021/04/21 02:41:57;;;;;;;29.70;15.70;;;6.90;91.20;;;;;;5125071;28;20411;-69
2021/04/21 02:45:10;;;;;;;32.33;15.60;;;6.80;91.50;;;;;;5116073;28;20481;-71
2021/04/21 02:47:46;;;;;;;37.13;16.90;;;6.90;91.70;;;;;;5051892;28;20452;-70
2021/04/21 02:50:22;;;;;;;34.70;16.60;;;7.00;91.40;;;;;;5033997;28;20457;-72
2021/04/21 02:52:53;;;;;;;30.77;15.47;;;6.90;91.40;;;;;;5032187;28;20435;-71
2021/04/21 02:55:55;;;;;;;36.53;17.10;;;6.90;91.30;;;;;;5045484;28;20438;-69
2021/04/21 02:58:40;;;;;;;35.47;16.43;;;6.90;91.30;;;;;;5032189;28;20428;-68
2021/04/21 03:01:19;;;;;;;37.83;17.63;;;6.90;91.30;;;;;;5021129;28;20459;-69
2021/04/21 03:03:54;;;;;;;32.60;15.77;;;6.80;91.40;;;;;;5045641;28;20911;-71
2021/04/21 03:06:26;;;;;;;36.83;17.77;;;6.80;91.70;;;;;;5028447;28;20458;-71
2021/04/21 03:09:05;;;;;;;37.97;17.50;;;6.80;91.80;;;;;;5029920;28;20501;-70
2021/04/21 03:11:31;;;;;;;37.07;18.30;;;6.70;91.90;;;;;;5029992;28;20432;-71
2021/04/21 03:14:19;;;;;;;40.20;18.80;;;6.70;92.10;;;;;;5019100;28;20553;-69
2021/04/21 03:17:07;;;;;;;36.43;15.30;;;6.70;92.20;;;;;;5046476;28;20435;-72
2021/04/21 03:19:39;;;;;;;31.80;16.33;;;6.70;92.30;;;;;;5043027;28;20525;-71
2021/04/21 03:22:14;;;;;;;40.43;18.13;;;6.70;92.20;;;;;;5046815;28;20462;-70
2021/04/21 03:24:50;;;;;;;42.23;19.30;;;6.70;92.20;;;;;;5103545;28;20865;-69
2021/04/21 03:27:19;;;;;;;41.23;19.33;;;6.70;92.20;;;;;;5112284;28;20424;-70
2021/04/21 03:29:49;;;;;;;36.17;17.00;;;6.60;92.30;;;;;;5089592;28;20456;-71
2021/04/21 03:32:26;;;;;;;34.00;17.40;;;6.50;92.40;;;;;;5091220;28;20811;-70
2021/04/21 03:34:54;;;;;;;36.33;17.27;;;6.60;92.60;;;;;;5091246;28;20412;-71
2021/04/21 03:37:51;;;;;;;36.93;17.63;;;6.60;92.10;;;;;;5091516;28;20429;-71
2021/04/21 03:40:17;;;;;;;32.40;15.03;;;6.60;91.70;;;;;;5092997;28;20527;-69
2021/04/21 03:42:44;;;;;;;30.40;15.80;;;6.50;91.60;;;;;;5093150;28;20461;-70
2021/04/21 03:45:12;;;;;;;36.17;17.70;;;6.50;91.80;;;;;;5089979;28;20467;-69
2021/04/21 03:47:38;;;;;;;37.37;17.13;;;6.40;92.30;;;;;;5098992;28;20428;-71
2021/04/21 03:50:07;;;;;;;42.27;19.03;;;6.40;92.70;;;;;;5112285;28;20440;-70
2021/04/21 03:52:36;;;;;;;38.00;17.43;;;6.40;92.80;;;;;;5105517;28;20425;-70
2021/04/21 03:55:04;;;;;;;35.03;17.07;;;6.40;92.90;;;;;;5109519;28;20562;-71
2021/04/21 03:57:33;;;;;;;42.07;19.17;;;6.40;92.90;;;;;;5102076;28;20436;-71
2021/04/21 04:00:03;;;;;;;38.67;17.80;;;6.30;92.80;;;;;;5110778;28;20447;-69
2021/04/21 04:02:31;;;;;;;38.60;17.93;;;6.30;93.00;;;;;;5108881;28;20490;-69
2021/04/21 04:05:00;;;;;;;37.50;18.83;;;6.30;93.10;;;;;;5114168;28;20447;-70
2021/04/21 04:07:37;;;;;;;42.83;20.20;;;6.30;93.20;;;;;;5103104;28;20420;-71
2021/04/21 04:10:04;;;;;;;43.63;20.13;;;6.30;93.10;;;;;;5110942;28;20463;-70
2021/04/21 04:12:35;;;;;;;41.93;21.07;;;6.20;93.10;;;;;;5114115;28;20434;-71
2021/04/21 04:15:01;;;;;;;43.73;20.17;;;6.20;93.40;;;;;;5115071;28;20818;-70
2021/04/21 04:17:30;;;;;;;36.33;17.37;;;6.20;93.40;;;;;;5106173;28;20425;-72
2021/04/21 04:19:59;;;;;;;39.40;18.13;;;6.20;93.20;;;;;;5111972;28;20818;-71
2021/04/21 04:22:30;;;;;;;44.27;19.40;;;6.20;93.10;;;;;;5113060;28;20819;-69
2021/04/21 04:24:57;;;;;;;42.57;20.50;;;6.20;92.90;;;;;;5108544;28;20475;-70
2021/04/21 04:27:25;;;;;;;41.23;19.20;;;6.20;92.90;;;;;;5117022;28;20926;-71
2021/04/21 04:29:55;;;;;;;40.70;20.83;;;6.30;93.10;;;;;;5103902;28;20984;-72
2021/04/21 04:32:23;;;;;;;44.77;19.33;;;6.30;93.10;;;;;;5092348;28;20421;-71
2021/04/21 04:34:51;;;;;;;44.27;20.47;;;6.30;93.20;;;;;;5092467;28;20939;-71
2021/04/21 04:37:19;;;;;;;45.23;22.10;;;6.30;93.10;;;;;;5092613;28;20500;-71
2021/04/21 04:39:46;;;;;;;47.67;21.33;;;6.30;93.00;;;;;;5102015;28;21320;-71
2021/04/21 04:42:12;;;;;;;45.37;19.53;;;6.40;92.90;;;;;;5096792;28;20465;-71
2021/04/21 04:44:41;;;;;;;44.43;19.87;;;6.30;93.00;;;;;;5092385;28;20417;-71
2021/04/21 04:47:25;;;;;;;45.87;20.60;;;6.30;93.10;;;;;;5107925;28;20416;-72
2021/04/21 04:50:07;;;;;;;47.70;22.50;;;6.30;93.20;;;;;;5113018;28;20535;-71
2021/04/21 04:52:34;;;;;;;45.00;20.97;;;6.30;93.30;;;;;;5100120;28;20408;-72
2021/04/21 04:55:02;;;;;;;49.70;21.93;;;6.30;93.30;;;;;;5098812;28;20779;-71
2021/04/21 04:57:30;;;;;;;42.30;19.47;;;6.40;93.20;;;;;;5110880;28;20424;-71
2021/04/21 05:00:06;;;;;;;53.63;21.97;;;6.40;93.10;;;;;;5125154;28;20444;-70
2021/04/21 05:02:43;;;;;;;45.30;21.17;;;6.40;93.10;;;;;;5126261;28;20863;-71
2021/04/21 05:05:10;;;;;;;38.03;20.40;;;6.50;93.00;;;;;;5125292;28;20412;-70
2021/04/21 05:07:46;;;;;;;43.70;20.40;;;6.50;92.90;;;;;;5123196;28;20412;-70
2021/04/21 05:10:28;;;;;;;45.97;21.63;;;6.50;92.90;;;;;;5122119;28;20428;-71
2021/04/21 05:12:57;;;;;;;47.47;22.00;;;6.50;92.80;;;;;;5123851;28;20416;-70
2021/04/21 05:15:32;;;;;;;44.93;21.73;;;6.50;92.70;;;;;;5116449;28;20445;-72
2021/04/21 05:18:18;;;;;;;44.70;22.47;;;6.50;92.70;;;;;;5112516;28;20435;-70
2021/04/21 05:21:02;;;;;;;49.13;22.23;;;6.50;92.90;;;;;;5111097;28;20577;-72
2021/04/21 05:23:46;;;;;;;44.93;21.83;;;6.60;92.80;;;;;;5100379;28;21063;-70
2021/04/21 05:26:49;;;;;;;47.17;21.73;;;6.60;92.60;;;;;;5112483;28;20496;-71
2021/04/21 05:29:29;;;;;;;41.70;19.83;;;6.60;92.70;;;;;;5094813;28;20980;-70
2021/04/21 05:32:13;;;;;;;48.40;22.90;;;6.70;92.40;;;;;;5105501;28;20412;-70
2021/04/21 05:35:16;;;;;;;45.17;21.10;;;6.80;91.90;;;;;;5116041;27;20435;-73
2021/04/21 05:38:27;;;;;;;44.20;21.10;;;6.90;91.70;;;;;;5097440;28;20412;-71
2021/04/21 05:41:11;;;;;;;45.00;19.73;;;7.00;90.90;;;;;;5027148;28;20456;-72
2021/04/21 05:43:41;;;;;;;50.03;21.90;;;6.90;90.60;;;;;;5027185;28;21009;-72
2021/04/21 05:46:25;;;;;;;44.73;21.03;;;6.90;90.40;;;;;;5028208;28;20431;-72
2021/04/21 05:49:25;;;;;;;46.47;20.50;;;7.00;90.40;;;;;;5027523;28;20455;-71
2021/04/21 05:52:10;;;;;;;41.37;19.33;;;7.10;90.20;;;;;;5028806;28;20428;-70
2021/04/21 05:54:35;;;;;;;44.90;21.40;;;7.10;90.20;;;;;;5011769;28;20431;-72
2021/04/21 05:57:38;;;;;;;49.30;21.30;;;7.10;90.10;;;;;;5028654;28;20423;-71
2021/04/21 06:00:25;;;;;;;39.53;21.23;;;7.20;90.10;;;;;;5031117;28;20296;-70
2021/04/21 06:02:52;;;;;;;39.83;19.40;;;7.30;90.20;;;;;;5030205;28;20471;-71
2021/04/21 06:05:17;;;;;;;43.37;18.30;;;7.40;89.70;;;;;;5027325;28;20424;-71
2021/04/21 06:07:44;;;;;;;42.00;20.87;;;7.50;88.40;;;;;;5027287;28;20499;-69
2021/04/21 06:10:23;;;;;;;39.43;21.20;;;7.70;88.00;;;;;;5027044;28;20440;-68
2021/04/21 06:13:01;;;;;;;43.50;19.50;;;7.70;87.70;;;;;;5027862;28;20433;-71
2021/04/21 06:15:36;;;;;;;46.37;20.70;;;7.80;87.40;;;;;;5028929;28;20807;-69
2021/04/21 06:18:09;;;;;;;39.43;20.90;;;7.80;87.40;;;;;;5069967;28;20962;-69
2021/04/21 06:20:41;;;;;;;41.50;20.80;;;7.90;87.40;;;;;;5101714;28;20441;-71
2021/04/21 06:23:13;;;;;;;42.07;20.87;;;8.00;87.10;;;;;;5099836;28;20465;-71
2021/04/21 06:25:42;;;;;;;41.60;19.50;;;8.00;87.10;;;;;;5091245;28;20421;-71
2021/04/21 06:28:08;;;;;;;44.70;21.13;;;8.20;86.50;;;;;;5088107;28;20437;-70
2021/04/21 06:30:35;;;;;;;47.07;20.50;;;8.30;85.90;;;;;;5102695;28;20429;-72
2021/04/21 06:33:02;;;;;;;46.33;22.67;;;8.30;85.30;;;;;;5089424;28;20421;-71
2021/04/21 06:35:30;;;;;;;40.17;20.60;;;8.30;85.50;;;;;;5089816;28;20421;-67
2021/04/21 06:37:56;;;;;;;41.07;21.90;;;8.30;85.90;;;;;;5096224;28;20432;-66
2021/04/21 06:40:29;;;;;;;41.90;22.10;;;8.40;86.20;;;;;;5108874;28;20927;-65
2021/04/21 06:42:57;;;;;;;46.30;21.50;;;8.60;85.70;;;;;;5109174;28;20558;-65
2021/04/21 06:45:31;;;;;;;46.30;21.73;;;8.70;85.50;;;;;;5108774;28;20976;-66
2021/04/21 06:47:58;;;;;;;52.40;23.43;;;8.90;84.40;;;;;;5109671;28;20461;-66
2021/04/21 06:50:35;;;;;;;45.60;23.40;;;9.00;83.80;;;;;;5109282;28;20523;-67
2021/04/21 06:53:06;;;;;;;44.73;22.40;;;9.10;83.60;;;;;;5109803;28;20511;-65
2021/04/21 06:55:33;;;;;;;47.67;22.37;;;9.10;83.60;;;;;;5110411;28;20948;-68
2021/04/21 06:58:00;;;;;;;43.80;22.57;;;9.20;83.40;;;;;;5099999;28;20971;-65
2021/04/21 07:00:27;;;;;;;42.70;20.37;;;9.40;82.70;;;;;;5093766;28;20448;-67
2021/04/21 07:02:58;;;;;;;45.20;23.27;;;9.50;82.50;;;;;;5098828;28;20553;-66
2021/04/21 07:05:34;;;;;;;38.80;20.57;;;9.60;81.90;;;;;;5101908;28;20501;-68
2021/04/21 07:08:00;;;;;;;38.70;21.67;;;9.70;81.10;;;;;;5089757;28;20420;-68
2021/04/21 07:10:26;;;;;;;40.43;21.63;;;9.80;80.80;;;;;;5088991;28;20481;-68
2021/04/21 07:12:52;;;;;;;40.83;20.83;;;10.00;80.60;;;;;;5089159;28;20281;-67
2021/04/21 07:15:20;;;;;;;44.87;21.97;;;10.10;79.90;;;;;;5091007;28;20449;-69
2021/04/21 07:17:50;;;;;;;47.23;23.50;;;10.30;79.30;;;;;;5093320;28;20519;-67
2021/04/21 07:20:16;;;;;;;40.83;20.93;;;10.20;78.70;;;;;;5089971;28;20579;-67
2021/04/21 07:22:43;;;;;;;47.67;23.07;;;10.10;79.70;;;;;;5099468;28;20472;-68
2021/04/21 07:25:12;;;;;;;38.53;21.93;;;10.30;79.60;;;;;;5098472;28;20422;-67
2021/04/21 07:27:39;;;;;;;39.03;21.63;;;10.50;79.20;;;;;;5092605;28;20430;-68
2021/04/21 07:30:05;;;;;;;39.00;21.80;;;10.60;78.90;;;;;;5088766;28;20457;-67
2021/04/21 07:32:43;;;;;;;35.97;20.13;;;10.60;77.80;;;;;;5089569;28;20453;-67
2021/04/21 07:35:17;;;;;;;46.10;22.70;;;10.60;78.30;;;;;;5089313;28;20413;-68
2021/04/21 07:37:44;;;;;;;39.40;21.33;;;10.70;77.70;;;;;;5088930;28;20413;-68
2021/04/21 07:40:22;;;;;;;40.07;22.43;;;10.90;77.40;;;;;;5103312;28;20446;-68
2021/04/21 07:42:49;;;;;;;42.43;21.47;;;11.00;76.40;;;;;;5113842;27;20545;-66
2021/04/21 07:45:19;;;;;;;42.47;22.67;;;10.90;76.80;;;;;;5099469;28;20436;-67
2021/04/21 07:47:46;;;;;;;39.63;22.47;;;10.90;77.10;;;;;;5113310;28;20503;-66
2021/04/21 07:50:12;;;;;;;46.80;22.20;;;11.10;76.40;;;;;;5112440;28;20471;-67
2021/04/21 07:52:38;;;;;;;40.93;22.53;;;11.00;76.20;;;;;;5113470;28;20424;-69
2021/04/21 07:55:20;;;;;;;44.57;21.47;;;11.10;76.40;;;;;;5115110;28;20915;-66
2021/04/21 07:57:58;;;;;;;42.60;22.87;;;11.20;76.20;;;;;;5116280;28;21080;-67
2021/04/21 08:00:27;;;;;;;39.97;22.87;;;11.40;75.40;;;;;;5117600;28;20462;-68
2021/04/21 08:02:52;;;;;;;46.37;22.70;;;11.50;75.40;;;;;;5116727;28;21099;-70
2021/04/21 08:05:18;;;;;;;40.17;21.50;;;11.60;75.10;;;;;;5104324;28;20527;-71
2021/04/21 08:08:01;;;;;;;44.93;21.17;;;11.70;74.80;;;;;;5111696;28;20187;-69
2021/04/21 08:10:30;;;;;;;41.60;22.50;;;11.80;74.30;;;;;;5100533;28;20443;-70
2021/04/21 08:12:58;;;;;;;43.23;22.10;;;11.90;74.00;;;;;;5112767;28;20519;-69
2021/04/21 08:15:31;;;;;;;42.10;21.40;;;12.00;73.90;;;;;;5113195;28;20420;-71
2021/04/21 08:18:04;;;;;;;47.53;23.60;;;12.00;73.60;;;;;;5112553;28;20432;-68
2021/04/21 08:20:34;;;;;;;40.87;21.47;;;12.30;73.30;;;;;;5111513;28;20927;-71
2021/04/21 08:23:02;;;;;;;36.40;19.43;;;12.50;72.60;;;;;;5112442;28;20555;-69
2021/04/21 08:25:29;;;;;;;37.43;20.57;;;12.70;71.40;;;;;;5112585;28;20424;-70
2021/04/21 08:27:56;;;;;;;35.73;21.03;;;12.90;70.50;;;;;;5107091;28;20424;-70
2021/04/21 08:30:22;;;;;;;34.50;19.17;;;13.00;69.80;;;;;;5091674;28;20432;-70
2021/04/21 08:32:48;;;;;;;36.53;21.20;;;13.00;69.80;;;;;;5090689;28;20433;-69
2021/04/21 08:35:15;;;;;;;46.90;20.63;;;13.00;69.80;;;;;;5092103;28;21192;-68
2021/04/21 08:37:42;;;;;;;35.63;19.10;;;13.00;69.80;;;;;;5098246;28;20183;-70
2021/04/21 08:40:11;;;;;;;41.57;21.40;;;13.20;68.30;;;;;;5112203;28;20451;-70
2021/04/21 08:42:42;;;;;;;37.70;22.13;;;13.40;67.20;;;;;;5112431;28;20491;-70
2021/04/21 08:45:09;;;;;;;33.20;19.00;;;13.60;67.00;;;;;;5111894;28;20424;-70
2021/04/21 08:47:38;;;;;;;39.73;20.73;;;13.60;66.70;;;;;;5118471;28;20456;-70
2021/04/21 08:50:04;;;;;;;36.17;19.70;;;13.70;66.10;;;;;;5120041;28;20577;-69
2021/04/21 08:52:42;;;;;;;36.07;19.33;;;13.60;66.30;;;;;;5098879;28;20428;-69
2021/04/21 08:55:09;;;;;;;37.10;19.60;;;13.70;66.70;;;;;;5112890;28;20986;-72
2021/04/21 08:57:37;;;;;;;37.23;20.10;;;13.80;65.80;;;;;;5112251;28;20424;-72
2021/04/21 09:00:05;;;;;;;35.20;19.30;;;13.80;65.70;;;;;;5108164;28;20452;-69
2021/04/21 09:02:31;;;;;;;35.03;20.00;;;14.00;65.30;;;;;;5091179;28;20591;-70
2021/04/21 09:04:57;;;;;;;36.80;19.07;;;14.10;64.40;;;;;;5091389;28;20502;-70
2021/04/21 09:07:22;;;;;;;33.90;18.90;;;14.20;64.10;;;;;;5091801;28;20417;-70
2021/04/21 09:09:49;;;;;;;36.53;20.23;;;14.30;62.60;;;;;;5091521;28;20214;-71
2021/04/21 09:12:14;;;;;;;32.27;18.90;;;14.30;62.50;;;;;;5110305;28;20215;-73
2021/04/21 09:14:40;;;;;;;32.20;18.43;;;14.40;60.40;;;;;;5108859;28;20509;-70
2021/04/21 09:17:06;;;;;;;28.50;17.17;;;14.30;60.00;;;;;;5109593;28;20194;-69
2021/04/21 09:19:36;;;;;;;33.83;16.80;;;14.40;59.20;;;;;;5109483;28;20955;-69
2021/04/21 09:22:10;;;;;;;29.93;17.23;;;14.50;57.30;;;;;;5099357;28;20876;-69
2021/04/21 09:24:40;;;;;;;30.07;13.67;;;14.70;56.10;;;;;;5086913;28;20430;-69
2021/04/21 09:27:25;;;;;;;32.70;17.27;;;14.80;54.10;;;;;;5100835;28;20456;-71
2021/04/21 09:30:22;;;;;;;22.63;13.73;;;14.90;54.10;;;;;;5090290;28;20461;-69
2021/04/21 09:32:47;;;;;;;24.43;13.53;;;14.90;53.40;;;;;;5110083;28;20424;-71
2021/04/21 09:35:19;;;;;;;27.53;14.77;;;15.00;52.20;;;;;;5093777;28;20418;-71
2021/04/21 09:37:45;;;;;;;26.87;14.23;;;15.00;52.80;;;;;;5091756;28;20189;-70
2021/04/21 09:40:12;;;;;;;28.33;14.00;;;15.00;52.20;;;;;;5090668;28;20520;-72
2021/04/21 09:42:39;;;;;;;30.47;14.60;;;14.80;52.50;;;;;;5110284;28;20233;-69
2021/04/21 09:45:07;;;;;;;22.63;12.40;;;14.90;53.00;;;;;;5112920;28;20477;-69
2021/04/21 09:47:33;;;;;;;24.73;13.37;;;15.10;53.30;;;;;;5105993;28;21221;-73
2021/04/21 09:49:59;;;;;;;26.73;13.77;;;15.20;51.80;;;;;;5100378;28;20838;-73
2021/04/21 09:52:26;;;;;;;26.20;15.50;;;15.30;52.80;;;;;;5087723;28;20447;-69
2021/04/21 09:54:52;;;;;;;28.20;15.33;;;15.40;51.60;;;;;;5088452;28;20448;-69
2021/04/21 09:57:20;;;;;;;27.50;15.00;;;15.30;52.60;;;;;;5088249;28;20536;-71
2021/04/21 09:59:59;;;;;;;24.37;14.23;;;15.20;52.40;;;;;;5086396;28;20209;-68
2021/04/21 10:02:35;;;;;;;23.43;13.00;;;15.10;52.00;;;;;;5088355;28;20453;-69
2021/04/21 10:05:29;;;;;;;26.87;14.07;;;15.20;51.70;;;;;;5089667;28;20496;-69
2021/04/21 10:08:14;;;;;;;23.43;13.17;;;15.40;49.30;;;;;;5089338;28;20414;-69
2021/04/21 10:10:45;;;;;;;24.63;12.93;;;15.40;49.70;;;;;;5099064;28;20526;-71
2021/04/21 10:13:15;;;;;;;27.07;13.37;;;15.50;49.40;;;;;;5090338;28;20436;-69
2021/04/21 10:15:42;;;;;;;22.93;12.83;;;15.60;49.00;;;;;;5091471;28;20479;-69
2021/04/21 10:18:11;;;;;;;21.57;13.17;;;15.70;48.70;;;;;;5095788;28;20458;-69
2021/04/21 10:20:37;;;;;;;24.13;13.70;;;15.70;49.30;;;;;;5092573;28;20444;-71
2021/04/21 10:23:05;;;;;;;20.60;13.20;;;15.60;49.70;;;;;;5092763;28;20457;-71
2021/04/21 10:25:31;;;;;;;22.93;12.77;;;15.80;48.50;;;;;;5091221;28;20422;-69
2021/04/21 10:27:58;;;;;;;23.90;12.80;;;15.90;48.70;;;;;;5091875;28;20436;-71
2021/04/21 10:30:25;;;;;;;22.87;13.37;;;16.00;46.90;;;;;;5088876;28;20813;-71
2021/04/21 10:32:51;;;;;;;24.87;14.37;;;16.00;47.30;;;;;;5088990;28;20433;-73
2021/04/21 10:35:17;;;;;;;18.20;10.77;;;16.00;46.70;;;;;;5089993;28;21052;-71
2021/04/21 10:37:43;;;;;;;21.53;12.07;;;15.90;44.50;;;;;;5088714;28;20516;-72
2021/04/21 10:40:11;;;;;;;19.87;11.10;;;16.00;43.20;;;;;;5087752;28;20528;-70
2021/04/21 10:42:48;;;;;;;19.87;10.70;;;16.10;43.80;;;;;;5089506;28;20558;-70
2021/04/21 10:45:16;;;;;;;16.97;9.90;;;16.50;43.00;;;;;;5099728;28;20499;-70
2021/04/21 10:47:49;;;;;;;34.33;12.17;;;16.90;42.70;;;;;;5120904;28;20446;-71
2021/04/21 10:50:36;;;;;;;19.53;10.90;;;17.40;41.80;;;;;;5112086;28;20444;-71
2021/04/21 10:53:02;;;;;;;21.33;12.07;;;18.00;40.60;;;;;;5098991;28;20485;-71
2021/04/21 10:55:27;;;;;;;19.50;11.43;;;17.80;40.60;;;;;;5089787;28;20446;-72
2021/04/21 10:58:08;;;;;;;22.03;11.13;;;17.80;41.10;;;;;;5101504;28;20420;-71
2021/04/21 11:00:37;;;;;;;20.60;12.90;;;18.20;40.30;;;;;;5096513;28;20211;-71
2021/04/21 11:03:11;;;;;;;18.90;12.13;;;17.80;40.80;;;;;;5109739;28;20554;-71
2021/04/21 11:05:40;;;;;;;22.90;13.13;;;17.20;43.10;;;;;;5109654;28;20420;-70
2021/04/21 11:08:15;;;;;;;18.20;11.40;;;17.60;42.60;;;;;;5109590;28;20441;-70
2021/04/21 11:10:59;;;;;;;22.43;12.63;;;18.10;41.40;;;;;;5099358;28;20454;-69
2021/04/21 11:13:34;;;;;;;21.30;11.87;;;18.70;39.90;;;;;;5095351;28;20422;-72
2021/04/21 11:16:01;;;;;;;22.67;13.30;;;19.00;38.30;;;;;;5120161;28;20428;-70
2021/04/21 11:18:32;;;;;;;22.73;11.50;;;19.30;38.40;;;;;;5109011;28;20463;-70
2021/04/21 11:21:00;;;;;;;21.20;12.33;;;19.60;37.50;;;;;;5092500;28;20445;-70
2021/04/21 11:26:25;;;;;;;21.10;11.40;;;19.90;36.30;;;;;;5092589;28;20470;-71
2021/04/21 11:29:05;;;;;;;18.80;11.40;;;19.40;36.70;;;;;;5091556;28;20488;-70
2021/04/21 11:31:40;;;;;;;22.00;11.80;;;19.60;37.00;;;;;;5092954;28;20436;-68
2021/04/21 11:34:24;;;;;;;26.67;13.20;;;19.40;35.60;;;;;;5094209;28;20458;-71
2021/04/21 11:36:56;;;;;;;18.17;10.70;;;18.80;37.80;;;;;;5112448;28;20426;-69
2021/04/21 11:39:47;;;;;;;19.30;11.70;;;18.50;38.40;;;;;;5099329;28;20423;-67
2021/04/21 11:42:39;;;;;;;19.77;11.97;;;18.80;37.20;;;;;;5112196;28;20469;-71
2021/04/21 11:45:14;;;;;;;18.73;10.73;;;19.20;35.90;;;;;;5113019;28;20453;-72
2021/04/21 11:48:03;;;;;;;18.33;11.50;;;18.70;35.10;;;;;;5112925;28;20667;-70
2021/04/21 11:50:34;;;;;;;17.50;10.37;;;17.60;37.40;;;;;;5114075;28;20443;-71
2021/04/21 11:53:14;;;;;;;23.03;12.17;;;17.40;38.60;;;;;;5115065;28;20417;-71
2021/04/21 11:55:50;;;;;;;21.47;11.20;;;18.00;37.60;;;;;;5113251;28;20447;-71
2021/04/21 11:58:25;;;;;;;16.30;10.10;;;18.50;36.40;;;;;;5112328;28;20429;-71
2021/04/21 12:01:12;;;;;;;17.10;10.13;;;18.70;36.00;;;;;;5103378;28;20557;-73
2021/04/21 12:03:45;;;;;;;18.27;10.70;;;18.90;36.00;;;;;;5093085;28;20474;-72
2021/04/21 12:06:19;;;;;;;18.57;10.73;;;18.90;35.30;;;;;;5092714;28;20431;-72
2021/04/21 12:08:50;;;;;;;15.53;9.87;;;19.30;35.60;;;;;;5115295;27;20424;-70
2021/04/21 12:11:28;;;;;;;14.27;9.13;;;19.80;33.60;;;;;;5111092;28;20443;-72
2021/04/21 12:13:54;;;;;;;16.93;9.30;;;19.90;34.10;;;;;;5091561;28;20424;-71
2021/04/21 12:16:23;;;;;;;18.63;10.47;;;20.30;33.50;;;;;;5096006;28;20427;-71
2021/04/21 12:18:50;;;;;;;14.00;10.40;;;20.70;32.00;;;;;;5101454;28;20956;-73
2021/04/21 12:21:16;;;;;;;18.10;9.10;;;20.80;31.30;;;;;;5093388;28;20444;-72
2021/04/21 12:24:02;;;;;;;14.20;9.77;;;20.30;32.00;;;;;;5091310;28;20749;-71
2021/04/21 12:26:39;;;;;;;16.03;9.50;;;19.80;32.80;;;;;;5092646;28;20483;-70
2021/04/21 12:29:09;;;;;;;19.20;9.47;;;19.20;33.60;;;;;;5094910;28;20449;-72
2021/04/21 12:31:35;;;;;;;18.60;10.20;;;19.40;34.30;;;;;;5112906;28;20497;-73
2021/04/21 12:34:04;;;;;;;15.90;9.77;;;20.00;33.10;;;;;;5114876;28;20930;-72
2021/04/21 12:36:31;;;;;;;18.50;9.83;;;19.70;33.90;;;;;;5112806;28;20497;-68
2021/04/21 12:39:18;;;;;;;15.90;9.80;;;19.90;33.50;;;;;;5110254;28;20428;-69
2021/04/21 12:42:00;;;;;;;16.40;8.90;;;19.50;32.10;;;;;;5112021;28;20420;-69
2021/04/21 12:44:30;;;;;;;15.47;10.20;;;19.00;33.50;;;;;;5100237;28;20922;-72
2021/04/21 12:47:10;;;;;;;19.97;11.47;;;18.70;34.00;;;;;;5112029;28;21176;-70
2021/04/21 12:49:41;;;;;;;16.53;9.33;;;18.10;35.50;;;;;;5111636;28;20430;-71
2021/04/21 12:52:09;;;;;;;17.20;9.53;;;18.10;36.60;;;;;;5112799;28;20954;-70
2021/04/21 12:54:43;;;;;;;16.87;10.53;;;18.80;36.30;;;;;;5102171;28;21099;-72
2021/04/21 12:57:15;;;;;;;22.13;9.60;;;19.70;34.40;;;;;;5099617;28;20428;-69
2021/04/21 12:59:47;;;;;;;15.30;9.70;;;20.20;33.90;;;;;;5103644;28;20590;-69
2021/04/21 13:02:16;;;;;;;20.53;11.60;;;20.70;33.90;;;;;;5092722;28;20465;-72
2021/04/21 13:04:46;;;;;;;20.60;12.70;;;20.20;33.70;;;;;;5093276;28;20432;-70
2021/04/21 13:07:21;;;;;;;18.90;11.77;;;19.30;35.20;;;;;;5093373;28;20508;-71
2021/04/21 13:09:47;;;;;;;24.93;14.00;;;18.50;37.10;;;;;;5091923;28;20929;-71